Time;durP1;ratioP1;P1;durP2;ratioP2;P2;SDS_P1;SDS_P2;PMS_P1;PMS_P2;Temp;Humidity;BMP_temperature;BMP_pressure;BME280_temperature;BME280_humidity;BME280_pressure;Samples;Min_cycle;Max_cycle;Signal;HPM_P1;HPM_P2
2022/01/02 00:00:10;;;;;;;9.70;4.60;;;11.30;99.90;;;;;;4976314;28;20406;-80
2022/01/02 00:02:37;;;;;;;6.50;5.10;;;11.30;99.90;;;;;;4976309;28;20413;-81
2022/01/02 00:05:06;;;;;;;10.43;5.83;;;11.40;99.90;;;;;;4975931;28;20472;-80
2022/01/02 00:07:35;;;;;;;9.57;5.03;;;11.40;99.90;;;;;;4974193;28;20461;-80
2022/01/02 00:10:04;;;;;;;9.40;5.20;;;11.40;99.90;;;;;;4976143;28;20418;-80
2022/01/02 00:12:33;;;;;;;6.97;4.57;;;11.50;99.90;;;;;;4975851;28;20414;-80
2022/01/02 00:15:01;;;;;;;7.63;5.13;;;11.50;99.90;;;;;;4976422;28;20434;-80
2022/01/02 00:17:29;;;;;;;7.63;4.80;;;11.50;99.90;;;;;;4975784;28;20445;-80
2022/01/02 00:19:56;;;;;;;6.60;4.97;;;11.50;99.90;;;;;;4975318;28;20422;-80
2022/01/02 00:22:34;;;;;;;7.97;5.40;;;11.40;99.90;;;;;;4974281;28;20426;-80
2022/01/02 00:25:00;;;;;;;8.20;5.57;;;11.40;99.90;;;;;;4975099;28;20487;-80
2022/01/02 00:27:27;;;;;;;6.87;4.57;;;11.40;99.90;;;;;;4975209;28;20469;-80
2022/01/02 00:29:55;;;;;;;7.40;5.13;;;11.50;99.90;;;;;;4976308;28;20952;-80
2022/01/02 00:32:21;;;;;;;8.20;5.13;;;11.50;99.90;;;;;;4978559;28;20487;-81
2022/01/02 00:34:51;;;;;;;10.00;5.93;;;11.50;99.90;;;;;;4978858;28;20470;-80
2022/01/02 00:37:17;;;;;;;7.03;4.47;;;11.50;99.90;;;;;;4978654;28;20456;-80
2022/01/02 00:39:43;;;;;;;6.17;4.27;;;11.50;99.90;;;;;;4977144;28;20465;-80
2022/01/02 00:42:28;;;;;;;6.80;5.43;;;11.50;99.90;;;;;;4977050;28;20277;-80
2022/01/02 00:44:58;;;;;;;7.17;5.40;;;11.50;99.90;;;;;;4978164;28;20433;-80
2022/01/02 00:47:36;;;;;;;6.80;4.70;;;11.40;99.90;;;;;;4978146;28;20983;-80
2022/01/02 00:50:36;;;;;;;6.10;4.77;;;11.50;99.90;;;;;;4977933;28;20445;-80
2022/01/02 00:53:05;;;;;;;7.00;4.77;;;11.40;99.90;;;;;;4977676;28;20533;-79
2022/01/02 00:55:34;;;;;;;7.17;5.10;;;11.40;99.90;;;;;;4977754;28;20808;-79
2022/01/02 00:58:02;;;;;;;7.10;4.93;;;11.40;99.90;;;;;;4975437;28;20458;-80
2022/01/02 01:00:29;;;;;;;6.97;5.43;;;11.30;99.90;;;;;;4977787;28;20422;-79
2022/01/02 01:02:57;;;;;;;8.30;5.33;;;11.30;99.90;;;;;;4977470;28;20830;-80
2022/01/02 01:05:29;;;;;;;7.30;4.40;;;11.30;99.90;;;;;;4977722;28;20460;-80
2022/01/02 01:07:57;;;;;;;7.23;5.00;;;11.30;99.90;;;;;;4976618;28;20485;-79
2022/01/02 01:10:24;;;;;;;10.60;5.53;;;11.30;99.90;;;;;;4977322;28;20414;-79
2022/01/02 01:12:52;;;;;;;6.90;4.50;;;11.40;99.90;;;;;;4977276;28;20508;-80
2022/01/02 01:15:20;;;;;;;6.90;4.87;;;11.30;99.90;;;;;;4976956;28;20565;-79
2022/01/02 01:17:46;;;;;;;6.90;4.67;;;11.30;99.90;;;;;;4977002;28;20434;-80
2022/01/02 01:20:14;;;;;;;7.37;4.80;;;11.40;99.90;;;;;;5026330;22;20504;-80
2022/01/02 01:22:42;;;;;;;10.20;5.70;;;11.40;99.90;;;;;;4996178;28;20489;-80
2022/01/02 01:25:13;;;;;;;6.20;4.57;;;11.40;99.90;;;;;;4996165;28;20413;-80
2022/01/02 01:27:39;;;;;;;8.43;5.30;;;11.50;99.90;;;;;;4994953;28;20456;-79
2022/01/02 01:30:07;;;;;;;7.03;4.30;;;11.50;99.90;;;;;;4994772;28;20452;-80
2022/01/02 01:32:33;;;;;;;7.70;5.30;;;11.40;99.90;;;;;;4995088;28;20427;-80
2022/01/02 01:34:58;;;;;;;6.83;4.90;;;11.40;99.90;;;;;;4996428;28;20492;-78
2022/01/02 01:37:24;;;;;;;9.20;5.20;;;11.40;99.90;;;;;;4994538;28;20585;-79
2022/01/02 01:39:49;;;;;;;8.23;5.70;;;11.40;99.90;;;;;;4995506;28;20194;-80
2022/01/02 01:42:25;;;;;;;6.47;4.40;;;11.50;99.90;;;;;;4995000;28;20217;-80
2022/01/02 01:45:04;;;;;;;8.50;5.83;;;11.50;99.90;;;;;;4995639;28;20530;-79
2022/01/02 01:47:29;;;;;;;9.80;4.33;;;11.50;99.90;;;;;;4993727;28;20460;-79
2022/01/02 01:49:55;;;;;;;8.03;4.90;;;11.60;99.90;;;;;;4995352;28;20506;-79
2022/01/02 01:52:21;;;;;;;8.63;4.73;;;11.70;99.90;;;;;;4995706;28;20185;-80
2022/01/02 01:54:46;;;;;;;6.93;5.27;;;11.70;99.90;;;;;;4995700;28;20189;-80
2022/01/02 01:57:12;;;;;;;9.67;6.07;;;11.70;99.90;;;;;;4995470;28;20522;-80
2022/01/02 01:59:37;;;;;;;6.20;4.10;;;11.60;99.90;;;;;;4994055;28;20236;-79
2022/01/02 02:02:03;;;;;;;8.07;4.60;;;11.70;99.90;;;;;;4993594;28;20265;-80
2022/01/02 02:04:29;;;;;;;8.70;4.93;;;11.60;99.90;;;;;;4995194;28;20174;-80
2022/01/02 02:06:56;;;;;;;8.80;5.27;;;11.60;99.90;;;;;;4993838;28;20213;-80
2022/01/02 02:09:24;;;;;;;7.73;4.57;;;11.60;99.90;;;;;;4993586;28;20680;-80
2022/01/02 02:11:50;;;;;;;7.00;4.67;;;11.60;99.90;;;;;;4993190;28;20932;-79
2022/01/02 02:14:16;;;;;;;7.47;4.83;;;11.60;99.90;;;;;;4994872;28;20823;-80
2022/01/02 02:16:42;;;;;;;6.90;4.73;;;11.60;99.90;;;;;;4993339;28;20475;-79
2022/01/02 02:19:08;;;;;;;6.60;4.43;;;11.70;99.90;;;;;;4992873;28;20523;-80
2022/01/02 02:21:37;;;;;;;7.70;4.80;;;11.70;99.90;;;;;;4994524;28;20162;-80
2022/01/02 02:24:07;;;;;;;5.97;4.50;;;11.70;99.90;;;;;;4992943;28;20535;-79
2022/01/02 02:26:34;;;;;;;6.63;4.67;;;11.70;99.90;;;;;;4993065;28;20423;-79
2022/01/02 02:29:02;;;;;;;7.30;4.60;;;11.70;99.90;;;;;;4994447;28;20428;-79
2022/01/02 02:31:27;;;;;;;8.90;4.77;;;11.70;99.90;;;;;;4994254;28;20912;-79
2022/01/02 02:33:53;;;;;;;6.97;4.93;;;11.70;99.90;;;;;;4994163;28;20409;-80
2022/01/02 02:36:18;;;;;;;7.20;4.20;;;11.80;99.90;;;;;;4992682;28;20227;-79
2022/01/02 02:38:44;;;;;;;7.13;5.10;;;11.70;99.90;;;;;;4993917;28;20267;-80
2022/01/02 02:41:10;;;;;;;8.57;4.60;;;11.70;99.90;;;;;;4994179;28;20166;-80
2022/01/02 02:49:05;;;;;;;7.00;4.23;;;11.80;99.90;;;;;;4994263;28;20440;-79
2022/01/02 02:51:56;;;;;;;6.03;3.93;;;11.80;99.90;;;;;;4991485;28;20466;-80
2022/01/02 02:54:24;;;;;;;11.57;5.73;;;11.90;99.90;;;;;;4993505;28;20428;-80
2022/01/02 02:56:58;;;;;;;8.27;5.13;;;11.90;99.90;;;;;;4993434;28;20413;-80
2022/01/02 02:59:29;;;;;;;9.63;5.10;;;11.90;99.90;;;;;;4992293;28;20535;-79
2022/01/02 03:01:56;;;;;;;8.10;5.83;;;11.90;99.90;;;;;;4993614;28;20397;-80
2022/01/02 03:04:22;;;;;;;6.77;5.40;;;11.90;99.90;;;;;;4992349;28;20962;-79
2022/01/02 03:06:48;;;;;;;9.00;5.17;;;11.80;99.90;;;;;;4993133;28;20518;-79
2022/01/02 03:09:16;;;;;;;9.00;5.73;;;11.80;99.90;;;;;;4991954;28;20564;-79
2022/01/02 03:11:43;;;;;;;9.17;4.90;;;11.80;99.90;;;;;;4991945;28;20461;-80
2022/01/02 03:14:11;;;;;;;7.67;4.97;;;11.80;99.90;;;;;;4993477;28;20500;-80
2022/01/02 03:16:39;;;;;;;8.27;5.67;;;11.80;99.90;;;;;;4993281;28;21362;-79
2022/01/02 03:19:05;;;;;;;8.30;5.10;;;11.80;99.90;;;;;;4993886;28;20903;-80
2022/01/02 03:21:31;;;;;;;9.17;4.93;;;11.80;99.90;;;;;;4993307;28;20405;-80
2022/01/02 03:23:57;;;;;;;8.00;5.20;;;11.80;99.90;;;;;;4993463;28;20973;-80
2022/01/02 03:26:23;;;;;;;7.87;5.70;;;11.70;99.90;;;;;;4993448;28;20957;-79
2022/01/02 03:28:48;;;;;;;8.40;5.03;;;11.70;99.90;;;;;;4993478;28;20205;-80
2022/01/02 03:31:14;;;;;;;8.00;5.33;;;11.70;99.90;;;;;;4993157;28;20185;-79
2022/01/02 03:33:40;;;;;;;7.73;5.33;;;11.80;99.90;;;;;;4991890;28;20182;-79
2022/01/02 03:36:06;;;;;;;9.27;6.33;;;11.80;99.90;;;;;;4993284;28;20177;-79
2022/01/02 03:38:32;;;;;;;8.10;5.53;;;11.70;99.90;;;;;;4992768;28;20432;-81
2022/01/02 03:40:58;;;;;;;7.80;6.17;;;11.70;99.90;;;;;;4991788;28;20567;-79
2022/01/02 03:43:24;;;;;;;8.37;5.23;;;11.70;99.90;;;;;;4991999;28;20440;-80
2022/01/02 03:45:50;;;;;;;10.27;5.90;;;11.60;99.90;;;;;;4993159;28;20425;-79
2022/01/02 03:48:16;;;;;;;7.87;5.73;;;11.60;99.90;;;;;;4993343;28;20468;-80
2022/01/02 03:50:42;;;;;;;10.90;5.73;;;11.50;99.90;;;;;;4993210;28;20204;-80
2022/01/02 03:53:07;;;;;;;9.70;6.13;;;11.60;99.90;;;;;;4993700;28;20591;-80
2022/01/02 03:55:34;;;;;;;9.90;6.27;;;11.50;99.90;;;;;;4991979;28;20483;-79
2022/01/02 03:58:00;;;;;;;7.07;5.73;;;11.50;99.90;;;;;;4993232;28;20178;-79
2022/01/02 04:00:26;;;;;;;8.23;5.40;;;11.50;99.90;;;;;;4993122;28;20524;-81
2022/01/02 04:02:52;;;;;;;10.30;6.10;;;11.40;99.90;;;;;;4993193;28;20467;-79
2022/01/02 04:05:18;;;;;;;10.63;5.83;;;11.40;99.90;;;;;;4997207;28;20935;-80
2022/01/02 04:07:44;;;;;;;9.60;6.37;;;11.40;99.90;;;;;;4995614;28;20236;-79
2022/01/02 04:10:12;;;;;;;11.23;6.80;;;11.40;99.90;;;;;;4995695;28;20202;-79
2022/01/02 04:12:38;;;;;;;10.60;6.20;;;11.40;99.90;;;;;;4995819;28;20420;-80
2022/01/02 04:15:07;;;;;;;9.90;6.50;;;11.40;99.90;;;;;;4996902;28;20420;-80
2022/01/02 04:17:33;;;;;;;10.37;6.40;;;11.40;99.90;;;;;;4995507;28;20420;-80
2022/01/02 04:20:03;;;;;;;8.53;5.83;;;11.40;99.90;;;;;;4996790;28;20456;-79
2022/01/02 04:22:29;;;;;;;9.93;6.33;;;11.40;99.90;;;;;;4995543;28;20226;-79
2022/01/02 04:24:54;;;;;;;9.13;6.20;;;11.40;99.90;;;;;;4995477;28;20914;-80
2022/01/02 04:27:21;;;;;;;8.90;5.37;;;11.40;99.90;;;;;;4994987;28;20224;-80
2022/01/02 04:29:47;;;;;;;8.90;5.70;;;11.40;99.90;;;;;;4995110;28;20212;-79
2022/01/02 04:32:16;;;;;;;7.67;5.50;;;11.40;99.90;;;;;;4996648;28;21038;-80
2022/01/02 04:34:42;;;;;;;11.70;6.33;;;11.40;99.90;;;;;;4996659;28;20178;-80
2022/01/02 04:37:08;;;;;;;12.70;6.60;;;11.50;99.90;;;;;;4996310;28;20423;-80
2022/01/02 04:39:34;;;;;;;12.60;7.07;;;11.40;99.90;;;;;;4994942;28;20205;-79
2022/01/02 04:42:00;;;;;;;11.70;6.70;;;11.40;99.90;;;;;;4995181;28;20421;-80
2022/01/02 04:44:26;;;;;;;10.23;6.43;;;11.30;99.90;;;;;;4996429;28;20423;-80
2022/01/02 04:46:52;;;;;;;9.93;6.40;;;11.30;99.90;;;;;;4994493;28;20755;-79
2022/01/02 04:49:18;;;;;;;9.23;6.43;;;11.20;99.90;;;;;;4995938;28;20971;-80
2022/01/02 04:51:43;;;;;;;9.83;6.27;;;11.20;99.90;;;;;;4996421;28;20428;-79
2022/01/02 04:54:09;;;;;;;14.10;6.83;;;11.20;99.90;;;;;;4996251;28;20209;-80
2022/01/02 04:56:34;;;;;;;16.30;7.70;;;11.20;99.90;;;;;;4994435;28;20189;-79
2022/01/02 04:59:00;;;;;;;10.50;6.80;;;11.20;99.90;;;;;;4995723;28;20201;-80
2022/01/02 05:01:25;;;;;;;10.03;6.93;;;11.20;99.90;;;;;;4995987;28;20256;-80
2022/01/02 05:03:51;;;;;;;10.40;6.67;;;11.20;99.90;;;;;;4996221;28;20178;-80
2022/01/02 05:06:17;;;;;;;10.30;6.10;;;11.10;99.90;;;;;;4995792;28;20180;-80
2022/01/02 05:08:44;;;;;;;11.23;6.73;;;11.20;99.90;;;;;;4995528;28;20205;-80
2022/01/02 05:11:10;;;;;;;10.63;6.73;;;11.10;99.90;;;;;;4995816;28;20178;-80
2022/01/02 05:13:36;;;;;;;9.63;6.40;;;11.10;99.90;;;;;;4995892;28;20417;-80
2022/01/02 05:16:01;;;;;;;8.30;6.20;;;11.10;99.90;;;;;;4993708;28;20456;-80
2022/01/02 05:18:27;;;;;;;10.73;6.00;;;11.20;99.90;;;;;;4999288;28;20634;-81
2022/01/02 05:20:53;;;;;;;10.83;7.50;;;11.20;99.90;;;;;;5000783;28;20284;-81
2022/01/02 05:23:19;;;;;;;10.13;7.03;;;11.20;99.90;;;;;;5000870;28;20668;-81
2022/01/02 05:25:45;;;;;;;9.47;6.60;;;11.10;99.90;;;;;;5000498;28;20186;-81
2022/01/02 05:28:11;;;;;;;8.90;6.60;;;11.10;99.90;;;;;;5000581;28;20598;-81
2022/01/02 05:30:38;;;;;;;10.97;6.13;;;11.10;99.90;;;;;;4998982;28;20478;-80
2022/01/02 05:33:04;;;;;;;9.13;6.63;;;11.10;99.90;;;;;;5000188;28;20496;-81
2022/01/02 05:35:31;;;;;;;10.50;6.60;;;11.10;99.90;;;;;;4999288;28;20436;-81
2022/01/02 05:37:57;;;;;;;9.60;6.77;;;11.10;99.90;;;;;;4998788;28;20428;-81
2022/01/02 05:40:23;;;;;;;10.53;6.30;;;11.10;99.90;;;;;;4999815;28;20445;-79
2022/01/02 05:42:48;;;;;;;13.37;7.03;;;11.00;99.90;;;;;;4998084;28;20435;-81
2022/01/02 05:45:14;;;;;;;10.50;6.80;;;11.00;99.90;;;;;;4999742;28;20185;-81
2022/01/02 05:47:40;;;;;;;10.80;6.10;;;11.00;99.90;;;;;;4999477;28;20208;-81
2022/01/02 05:50:07;;;;;;;9.83;5.77;;;11.00;99.90;;;;;;4999465;28;20190;-81
2022/01/02 05:52:33;;;;;;;9.23;7.20;;;11.00;99.90;;;;;;4999164;28;20186;-82
2022/01/02 05:54:59;;;;;;;9.03;6.13;;;11.00;99.90;;;;;;4997688;28;20504;-82
2022/01/02 05:57:25;;;;;;;10.13;6.97;;;10.90;99.90;;;;;;4997519;28;20531;-82
2022/01/02 05:59:50;;;;;;;11.03;6.90;;;11.00;99.90;;;;;;4997760;28;20479;-81
2022/01/02 06:02:16;;;;;;;10.00;7.03;;;10.90;99.90;;;;;;4997745;28;20196;-81
2022/01/02 06:04:42;;;;;;;12.83;6.83;;;10.90;99.90;;;;;;4998695;28;20261;-80
2022/01/02 06:07:08;;;;;;;16.00;8.30;;;10.90;99.90;;;;;;4998418;28;20314;-81
2022/01/02 06:09:34;;;;;;;10.97;6.10;;;10.90;99.90;;;;;;4998200;28;20200;-81
2022/01/02 06:11:59;;;;;;;9.37;6.10;;;10.90;99.90;;;;;;4998515;28;20425;-81
2022/01/02 06:14:25;;;;;;;13.50;7.30;;;10.90;99.90;;;;;;4998247;28;20169;-81
2022/01/02 06:16:50;;;;;;;10.63;7.20;;;10.90;99.90;;;;;;4997578;28;20178;-81
2022/01/02 06:19:16;;;;;;;11.10;7.20;;;10.90;99.90;;;;;;4998066;28;20205;-81
2022/01/02 06:21:42;;;;;;;13.20;7.73;;;10.90;99.90;;;;;;4998062;28;20272;-80
2022/01/02 06:24:07;;;;;;;13.73;7.87;;;10.90;99.90;;;;;;4997849;28;20182;-80
2022/01/02 06:26:33;;;;;;;14.47;8.03;;;11.00;99.90;;;;;;4996350;28;20178;-81
2022/01/02 06:29:02;;;;;;;11.33;7.03;;;10.90;99.90;;;;;;4995624;28;20221;-81
2022/01/02 06:31:31;;;;;;;12.93;7.87;;;10.90;99.90;;;;;;4997528;28;20174;-80
2022/01/02 06:33:57;;;;;;;12.67;7.90;;;10.90;99.90;;;;;;4995213;28;20505;-81
2022/01/02 06:36:23;;;;;;;12.47;7.10;;;10.90;99.90;;;;;;4995780;28;20441;-80
2022/01/02 06:38:48;;;;;;;12.60;7.63;;;10.90;99.90;;;;;;4997138;28;20436;-80
2022/01/02 06:41:14;;;;;;;13.50;7.67;;;11.00;99.90;;;;;;4997644;28;20834;-81
2022/01/02 06:43:40;;;;;;;12.43;7.70;;;11.00;99.90;;;;;;4997013;28;20182;-80
2022/01/02 06:46:07;;;;;;;18.77;8.50;;;11.00;99.90;;;;;;4994920;28;20556;-81
2022/01/02 06:48:33;;;;;;;11.80;8.53;;;11.00;99.90;;;;;;4996943;28;20471;-80
2022/01/02 06:50:59;;;;;;;14.37;8.10;;;11.00;99.90;;;;;;4996575;28;20413;-81
2022/01/02 06:53:24;;;;;;;14.47;8.60;;;11.10;99.90;;;;;;4995080;28;20177;-81
2022/01/02 06:55:50;;;;;;;13.73;8.60;;;11.00;99.90;;;;;;4996571;28;20435;-81
2022/01/02 06:58:15;;;;;;;18.10;8.17;;;11.00;99.90;;;;;;4996388;28;20245;-80
2022/01/02 07:00:42;;;;;;;12.60;7.40;;;11.10;99.90;;;;;;4994471;28;20289;-80
2022/01/02 07:03:08;;;;;;;12.17;7.60;;;11.10;99.90;;;;;;4994220;28;20194;-80
2022/01/02 07:05:34;;;;;;;10.40;7.37;;;11.10;99.90;;;;;;4995377;28;20421;-79
2022/01/02 07:07:59;;;;;;;11.80;6.33;;;11.10;99.90;;;;;;4994914;28;20217;-80
2022/01/02 07:10:25;;;;;;;9.87;6.33;;;11.10;99.90;;;;;;4994008;28;20193;-80
2022/01/02 07:12:51;;;;;;;13.20;6.37;;;11.10;99.90;;;;;;4993375;28;20619;-79
2022/01/02 07:15:17;;;;;;;18.67;7.43;;;11.10;99.90;;;;;;4995105;28;20200;-79
2022/01/02 07:17:43;;;;;;;12.13;6.53;;;11.10;99.90;;;;;;4994680;28;20947;-79
2022/01/02 07:20:10;;;;;;;11.63;7.33;;;11.10;99.90;;;;;;4993548;28;20627;-79
2022/01/02 07:22:36;;;;;;;12.80;7.40;;;11.10;99.90;;;;;;4993519;28;20182;-80
2022/01/02 07:25:03;;;;;;;13.63;8.20;;;11.10;99.90;;;;;;4992092;28;20449;-79
2022/01/02 07:27:28;;;;;;;11.40;7.70;;;11.10;99.90;;;;;;4991775;28;20496;-79
2022/01/02 07:29:58;;;;;;;9.50;5.77;;;11.10;99.90;;;;;;4994151;28;20479;-80
2022/01/02 07:32:24;;;;;;;11.07;5.70;;;11.10;99.90;;;;;;4993879;28;20687;-80
2022/01/02 07:34:50;;;;;;;11.80;5.80;;;11.10;99.90;;;;;;4993244;28;20409;-80
2022/01/02 07:37:16;;;;;;;12.30;5.10;;;11.10;99.90;;;;;;4992391;28;20190;-80
2022/01/02 07:39:41;;;;;;;8.07;4.93;;;11.10;99.90;;;;;;4992131;28;20233;-79
2022/01/02 07:42:07;;;;;;;9.77;6.23;;;11.20;99.90;;;;;;4993521;28;20618;-80
2022/01/02 07:44:33;;;;;;;11.33;5.93;;;11.20;99.90;;;;;;4992250;28;20190;-80
2022/01/02 07:46:59;;;;;;;7.53;5.17;;;11.20;99.90;;;;;;4992900;28;20201;-80
2022/01/02 07:49:24;;;;;;;8.50;5.70;;;11.20;99.90;;;;;;4993016;28;20441;-80
2022/01/02 07:51:50;;;;;;;9.03;6.30;;;11.20;99.90;;;;;;4991902;28;20182;-81
2022/01/02 07:54:16;;;;;;;9.93;5.20;;;11.20;99.90;;;;;;4992026;28;20592;-80
2022/01/02 07:56:41;;;;;;;11.23;6.43;;;11.10;99.90;;;;;;4992920;28;20571;-80
2022/01/02 07:59:08;;;;;;;12.77;7.07;;;11.10;99.90;;;;;;4991766;28;20205;-80
2022/01/02 08:01:34;;;;;;;11.20;6.63;;;11.10;99.90;;;;;;4993053;28;20197;-80
2022/01/02 08:04:00;;;;;;;9.97;5.67;;;11.20;99.90;;;;;;4992055;28;20928;-80
2022/01/02 08:06:25;;;;;;;9.73;5.70;;;11.20;99.90;;;;;;4992735;28;20448;-80
2022/01/02 08:08:51;;;;;;;10.50;5.70;;;11.20;99.90;;;;;;4993001;28;20213;-81
2022/01/02 08:11:17;;;;;;;8.53;5.60;;;11.20;99.90;;;;;;4992493;28;20239;-80
2022/01/02 08:13:44;;;;;;;7.53;5.00;;;11.30;99.90;;;;;;4993518;28;20360;-81
2022/01/02 08:16:10;;;;;;;7.17;5.50;;;11.20;99.90;;;;;;4991067;28;20417;-81
2022/01/02 08:18:36;;;;;;;8.03;4.90;;;11.20;99.90;;;;;;4991895;28;20421;-79
2022/01/02 08:21:02;;;;;;;9.93;5.17;;;11.30;99.90;;;;;;4992127;28;20441;-80
2022/01/02 08:23:27;;;;;;;7.10;5.07;;;11.30;99.90;;;;;;4990554;28;20186;-81
2022/01/02 08:25:53;;;;;;;12.27;4.73;;;11.30;99.90;;;;;;4992330;28;20262;-81
2022/01/02 08:28:19;;;;;;;6.37;4.73;;;11.30;99.90;;;;;;4994630;28;20209;-80
2022/01/02 08:30:45;;;;;;;5.70;3.87;;;11.30;99.90;;;;;;4992981;28;20205;-81
2022/01/02 08:33:11;;;;;;;11.07;4.97;;;11.40;99.90;;;;;;4993094;28;20428;-80
2022/01/02 08:35:38;;;;;;;6.90;4.00;;;11.40;99.90;;;;;;4993483;28;20504;-81
2022/01/02 08:38:03;;;;;;;7.93;4.60;;;11.40;99.90;;;;;;4992724;28;20193;-80
2022/01/02 08:40:29;;;;;;;8.00;4.63;;;11.40;99.90;;;;;;4995460;28;20440;-80
2022/01/02 08:42:55;;;;;;;9.43;4.50;;;11.40;99.90;;;;;;4992778;28;20189;-80
2022/01/02 08:45:21;;;;;;;8.83;4.57;;;11.40;99.90;;;;;;4992826;28;20479;-80
2022/01/02 08:47:46;;;;;;;7.37;4.60;;;11.40;99.90;;;;;;4994614;28;20209;-80
2022/01/02 08:50:12;;;;;;;8.10;4.20;;;11.50;99.90;;;;;;4995783;28;20203;-80
2022/01/02 08:52:38;;;;;;;7.10;4.67;;;11.50;99.90;;;;;;4996409;28;20403;-80
2022/01/02 08:55:05;;;;;;;6.37;4.53;;;11.50;99.90;;;;;;4997343;28;20182;-81
2022/01/02 08:57:31;;;;;;;7.50;4.73;;;11.50;99.90;;;;;;4995649;28;20416;-79
2022/01/02 08:59:56;;;;;;;6.20;4.40;;;11.50;99.90;;;;;;4997609;28;20460;-81
2022/01/02 09:02:22;;;;;;;7.90;4.30;;;11.50;99.90;;;;;;4996020;28;20280;-82
2022/01/02 09:04:47;;;;;;;8.20;5.03;;;11.50;99.90;;;;;;4997079;28;20185;-81
2022/01/02 09:07:13;;;;;;;7.87;4.33;;;11.50;99.90;;;;;;4995837;28;20264;-80
2022/01/02 09:09:40;;;;;;;7.20;4.43;;;11.50;99.90;;;;;;4997071;28;20242;-80
2022/01/02 09:12:06;;;;;;;9.77;5.43;;;11.40;99.90;;;;;;4997083;28;20170;-80
2022/01/02 09:14:32;;;;;;;7.87;4.53;;;11.40;99.90;;;;;;4996750;28;20417;-81
2022/01/02 09:16:58;;;;;;;8.60;5.00;;;11.40;99.90;;;;;;4995417;28;20429;-81
2022/01/02 09:19:23;;;;;;;6.03;4.27;;;11.40;99.90;;;;;;4996124;28;20213;-80
2022/01/02 09:21:49;;;;;;;6.17;4.23;;;11.40;99.90;;;;;;4995489;28;20464;-80
2022/01/02 09:24:14;;;;;;;8.30;4.70;;;11.40;99.90;;;;;;4997498;28;20177;-80
2022/01/02 09:26:40;;;;;;;5.80;3.93;;;11.40;99.90;;;;;;4995105;28;20410;-80
2022/01/02 09:29:06;;;;;;;6.87;3.40;;;11.50;99.90;;;;;;4995081;28;20201;-80
2022/01/02 09:31:31;;;;;;;4.37;2.90;;;11.60;99.90;;;;;;4994629;28;20657;-79
2022/01/02 09:33:57;;;;;;;6.63;4.00;;;11.60;99.90;;;;;;4994170;28;20181;-81
2022/01/02 09:36:22;;;;;;;4.23;2.83;;;11.70;99.90;;;;;;4994705;28;20188;-80
2022/01/02 09:38:48;;;;;;;6.00;3.87;;;11.80;99.90;;;;;;4995621;28;20268;-80
2022/01/02 09:41:14;;;;;;;5.50;2.60;;;11.90;99.90;;;;;;4995926;28;20189;-79
2022/01/02 09:43:40;;;;;;;4.23;2.80;;;12.00;99.90;;;;;;4995410;28;20931;-80
2022/01/02 09:46:06;;;;;;;5.73;2.50;;;12.10;99.90;;;;;;4994487;28;20229;-81
2022/01/02 09:48:32;;;;;;;5.53;2.93;;;12.20;99.90;;;;;;4993901;28;20213;-80
2022/01/02 09:50:57;;;;;;;7.23;3.50;;;12.40;99.90;;;;;;4994351;28;20512;-80
2022/01/02 09:53:23;;;;;;;4.37;3.17;;;12.50;99.90;;;;;;4993865;28;20907;-81
2022/01/02 09:55:50;;;;;;;6.97;3.93;;;12.60;99.90;;;;;;4993451;28;20204;-79
2022/01/02 09:58:15;;;;;;;4.60;3.30;;;12.70;99.90;;;;;;4993755;28;20421;-79
2022/01/02 10:00:48;;;;;;;6.70;3.23;;;12.80;99.90;;;;;;4994325;28;20433;-79
2022/01/02 10:03:14;;;;;;;5.60;3.37;;;12.80;99.90;;;;;;4993910;28;20313;-82
2022/01/02 10:05:53;;;;;;;4.40;2.83;;;12.80;99.90;;;;;;4994922;28;20425;-81
2022/01/02 10:08:27;;;;;;;6.60;2.90;;;13.00;99.90;;;;;;4994755;28;20451;-81
2022/01/02 10:11:07;;;;;;;4.63;2.90;;;13.10;99.90;;;;;;4994741;28;20424;-80
2022/01/02 10:13:37;;;;;;;4.97;2.90;;;13.10;99.90;;;;;;4995085;28;20385;-80
2022/01/02 10:16:03;;;;;;;4.30;2.53;;;13.10;99.90;;;;;;4993382;28;20428;-78
2022/01/02 10:18:29;;;;;;;3.97;2.50;;;13.10;99.90;;;;;;4994436;28;20425;-80
2022/01/02 10:20:59;;;;;;;3.87;2.73;;;13.10;99.90;;;;;;4994200;28;20597;-79
2022/01/02 10:23:25;;;;;;;6.63;3.10;;;13.20;99.90;;;;;;4993289;28;20794;-80
2022/01/02 10:25:56;;;;;;;6.07;2.80;;;13.10;99.90;;;;;;4994381;28;20417;-80
2022/01/02 10:28:41;;;;;;;6.10;2.93;;;13.00;99.90;;;;;;4993013;28;20201;-79
2022/01/02 10:31:08;;;;;;;4.53;2.70;;;12.90;99.90;;;;;;4993240;28;20420;-80
2022/01/02 10:33:47;;;;;;;3.87;2.63;;;12.90;99.90;;;;;;4992982;28;20787;-80
2022/01/02 10:36:14;;;;;;;5.63;3.47;;;13.00;99.90;;;;;;4985584;28;20435;-80
2022/01/02 10:39:06;;;;;;;6.23;2.70;;;13.00;99.90;;;;;;4978367;28;20421;-80
2022/01/02 10:41:34;;;;;;;5.60;3.73;;;13.30;99.90;;;;;;4997529;28;20413;-81
2022/01/02 10:44:18;;;;;;;8.17;3.00;;;13.60;99.90;;;;;;4996811;28;20416;-80
2022/01/02 10:47:06;;;;;;;6.33;3.13;;;13.80;99.90;;;;;;4997334;28;20413;-82
2022/01/02 10:50:05;;;;;;;5.93;2.97;;;13.80;99.90;;;;;;4994856;28;20539;-81
2022/01/02 10:52:31;;;;;;;4.63;3.00;;;13.80;99.90;;;;;;4979664;28;20451;-81
2022/01/02 10:54:59;;;;;;;5.23;3.30;;;13.80;99.90;;;;;;4979789;28;20855;-80
2022/01/02 10:57:26;;;;;;;9.50;3.67;;;13.90;99.90;;;;;;4996219;28;20236;-79
2022/01/02 10:59:57;;;;;;;4.33;2.63;;;13.90;99.90;;;;;;4995244;28;20441;-81
2022/01/02 11:02:24;;;;;;;5.50;2.97;;;13.90;99.90;;;;;;4977160;28;20818;-81
2022/01/02 11:05:01;;;;;;;4.40;3.10;;;14.10;99.90;;;;;;4997332;28;20417;-80
2022/01/02 11:07:36;;;;;;;5.83;3.60;;;14.30;99.90;;;;;;4994417;28;20456;-81
2022/01/02 11:10:02;;;;;;;4.77;3.10;;;14.50;99.90;;;;;;4997289;28;20443;-80
2022/01/02 11:12:29;;;;;;;7.73;2.90;;;14.70;99.90;;;;;;4995535;28;20963;-80
2022/01/02 11:14:55;;;;;;;5.97;3.60;;;14.70;99.90;;;;;;4996927;28;20528;-81
2022/01/02 11:17:20;;;;;;;7.20;3.00;;;15.00;99.90;;;;;;4996277;28;20425;-80
2022/01/02 11:19:46;;;;;;;6.87;2.93;;;15.80;99.90;;;;;;4995517;28;20811;-80
2022/01/02 11:22:19;;;;;;;6.57;3.63;;;16.30;99.90;;;;;;4978373;28;20185;-81
2022/01/02 11:25:01;;;;;;;6.13;3.30;;;17.00;99.90;;;;;;4976405;28;20182;-80
2022/01/02 11:27:40;;;;;;;5.60;2.93;;;17.30;99.90;;;;;;4993881;28;20448;-81
2022/01/02 11:30:31;;;;;;;8.23;3.40;;;17.00;99.90;;;;;;4993675;28;20433;-82
2022/01/02 11:33:19;;;;;;;7.40;3.67;;;17.00;99.90;;;;;;4976777;28;20413;-82
2022/01/02 11:35:48;;;;;;;4.97;3.30;;;17.30;99.90;;;;;;4978042;28;20795;-81
2022/01/02 11:38:17;;;;;;;6.13;3.80;;;18.10;99.90;;;;;;4980189;28;20974;-82
2022/01/02 11:40:56;;;;;;;5.03;3.30;;;18.10;99.90;;;;;;4980485;28;20471;-82
2022/01/02 11:43:49;;;;;;;4.87;3.20;;;18.00;99.90;;;;;;4997409;28;20393;-82
2022/01/02 11:46:26;;;;;;;5.93;3.10;;;17.70;99.90;;;;;;4997406;28;20401;-82
2022/01/02 11:49:04;;;;;;;8.13;3.37;;;16.70;99.90;;;;;;4980276;28;20468;-82
2022/01/02 11:51:50;;;;;;;4.47;3.03;;;16.10;99.90;;;;;;4996860;28;20492;-82
2022/01/02 11:54:31;;;;;;;7.53;3.57;;;15.80;99.90;;;;;;4979445;28;20420;-81
2022/01/02 11:57:15;;;;;;;4.17;3.40;;;15.60;99.90;;;;;;4978627;28;20417;-82
2022/01/02 11:59:45;;;;;;;6.50;3.87;;;15.30;99.90;;;;;;4997075;28;20904;-82
2022/01/02 12:02:26;;;;;;;7.27;3.03;;;15.40;99.90;;;;;;4979797;28;20929;-82
2022/01/02 12:07:41;;;;;;;5.93;3.10;;;15.00;99.90;;;;;;4996072;28;20467;-81
2022/01/02 12:10:16;;;;;;;4.33;2.70;;;14.90;99.90;;;;;;4996912;28;20452;-81
2022/01/02 12:13:00;;;;;;;5.03;3.30;;;14.70;99.90;;;;;;4995227;28;20416;-82
2022/01/02 12:15:32;;;;;;;4.77;2.60;;;14.70;99.90;;;;;;4978490;28;20483;-81
2022/01/02 12:18:16;;;;;;;3.77;2.50;;;14.50;99.90;;;;;;4978016;28;20421;-82
2022/01/02 12:20:51;;;;;;;8.47;3.50;;;14.40;99.90;;;;;;4978960;28;20523;-82
2022/01/02 12:23:35;;;;;;;6.43;3.30;;;14.40;99.90;;;;;;4979948;28;20428;-81
2022/01/02 12:26:01;;;;;;;5.07;2.60;;;14.40;99.90;;;;;;4997054;28;20819;-80
2022/01/02 12:28:39;;;;;;;6.13;3.50;;;14.40;99.90;;;;;;4996554;28;20492;-80
2022/01/02 12:31:08;;;;;;;5.30;3.13;;;14.40;99.90;;;;;;5003910;28;20437;-80
2022/01/02 12:33:35;;;;;;;5.33;2.70;;;14.40;99.90;;;;;;5000482;28;20556;-80
2022/01/02 12:36:13;;;;;;;4.80;2.70;;;14.40;99.90;;;;;;4998472;28;20491;-80
2022/01/02 12:38:48;;;;;;;5.40;2.90;;;14.30;99.90;;;;;;4998391;28;20435;-80
2022/01/02 12:41:15;;;;;;;5.60;3.03;;;14.40;99.90;;;;;;4997589;28;21019;-80
2022/01/02 12:43:53;;;;;;;7.63;2.97;;;14.50;99.90;;;;;;4998649;28;20421;-81
2022/01/02 12:46:42;;;;;;;4.20;2.90;;;14.60;99.90;;;;;;4997589;28;20474;-80
2022/01/02 12:49:13;;;;;;;4.60;2.57;;;14.50;99.90;;;;;;4997978;28;20471;-80
2022/01/02 12:51:44;;;;;;;6.47;2.97;;;14.60;99.90;;;;;;4997011;28;21108;-80
2022/01/02 12:54:15;;;;;;;4.63;3.03;;;14.60;99.90;;;;;;4997086;28;20888;-80
2022/01/02 12:56:43;;;;;;;5.20;3.20;;;14.50;99.90;;;;;;4996236;28;20405;-80